createdAt,value
2022-12-13T00:01:09.223Z,0.41
2022-12-13T00:03:35.774Z,0.33
2022-12-13T00:06:05.589Z,0.34
2022-12-13T00:08:32.133Z,0.35
2022-12-13T00:11:04.370Z,0.28
2022-12-13T00:13:30.825Z,0.04
2022-12-13T00:15:59.105Z,0.25
2022-12-13T00:18:26.248Z,0.27
2022-12-13T00:20:52.877Z,0.24
2022-12-13T00:23:20.274Z,0.30
2022-12-13T00:25:47.487Z,0.37
2022-12-13T00:28:15.498Z,0.18
2022-12-13T00:30:42.785Z,0.64
2022-12-13T00:33:09.421Z,0.70
2022-12-13T00:35:42.240Z,0.67
2022-12-13T00:38:09.996Z,0.70
2022-12-13T00:40:36.505Z,0.67
2022-12-13T00:43:02.972Z,0.93
2022-12-13T00:45:29.471Z,1.12
2022-12-13T00:47:55.983Z,0.92
2022-12-13T00:50:22.484Z,0.65
2022-12-13T00:52:48.968Z,0.45
2022-12-13T00:55:15.803Z,0.59
2022-12-13T00:57:42.588Z,0.50
2022-12-13T01:00:10.294Z,0.54
2022-12-13T01:02:36.737Z,0.29
2022-12-13T01:05:03.757Z,0.15
2022-12-13T01:07:30.250Z,0.25
2022-12-13T01:09:58.324Z,0.27
2022-12-13T01:12:24.910Z,0.37
2022-12-13T01:14:55.960Z,0.33
2022-12-13T01:17:22.751Z,0.52
2022-12-13T01:19:49.208Z,0.93
2022-12-13T01:22:16.592Z,0.93
2022-12-13T01:24:43.235Z,0.56
2022-12-13T01:27:09.711Z,0.54
2022-12-13T01:29:36.823Z,0.51
2022-12-13T01:32:03.594Z,0.81
2022-12-13T01:34:30.144Z,0.82
2022-12-13T01:36:58.454Z,0.85
2022-12-13T01:39:27.259Z,0.94
2022-12-13T01:41:55.798Z,1.08
2022-12-13T01:44:56.416Z,1.48
2022-12-13T01:47:27.185Z,1.16
2022-12-13T01:49:59.810Z,0.89
2022-12-13T01:52:31.366Z,0.70
2022-12-13T01:55:03.798Z,1.04
2022-12-13T01:57:34.619Z,0.81
2022-12-13T02:00:01.572Z,0.68
2022-12-13T02:02:28.078Z,0.50
2022-12-13T02:05:07.669Z,0.66
2022-12-13T02:07:38.562Z,0.60
2022-12-13T02:10:06.636Z,0.34
2022-12-13T02:12:36.504Z,0.70
2022-12-13T02:15:08.514Z,1.11
2022-12-13T02:17:53.794Z,1.09
2022-12-13T02:20:35.550Z,1.45
2022-12-13T02:23:20.694Z,1.47
2022-12-13T02:26:12.842Z,1.43
2022-12-13T02:29:30.830Z,1.39
2022-12-13T02:32:11.786Z,1.47
2022-12-13T02:34:57.418Z,1.85
2022-12-13T02:37:32.177Z,1.83
2022-12-13T02:40:09.252Z,2.07
2022-12-13T02:42:45.013Z,1.80
2022-12-13T02:45:39.107Z,1.65
2022-12-13T02:48:10.555Z,1.91
2022-12-13T02:50:39.536Z,1.59
2022-12-13T02:53:08.073Z,1.71
2022-12-13T02:55:37.552Z,1.74
2022-12-13T02:58:04.046Z,2.00
2022-12-13T03:00:53.648Z,2.28
2022-12-13T03:03:38.906Z,2.10
2022-12-13T03:06:42.911Z,2.33
2022-12-13T03:09:39.817Z,2.14
2022-12-13T03:12:23.832Z,2.42
2022-12-13T03:15:01.128Z,2.51
2022-12-13T03:17:33.870Z,2.50
2022-12-13T03:20:01.162Z,2.72
2022-12-13T03:22:27.654Z,2.79
2022-12-13T03:24:54.156Z,2.83
2022-12-13T03:27:20.678Z,2.86
2022-12-13T03:29:47.121Z,2.92
2022-12-13T03:32:13.610Z,2.52
2022-12-13T03:34:44.725Z,2.36
2022-12-13T03:37:12.538Z,2.14
2022-12-13T03:39:39.388Z,2.50
2022-12-13T03:42:06.219Z,2.62
2022-12-13T03:44:32.702Z,2.29
2022-12-13T03:47:00.583Z,2.37
2022-12-13T03:49:27.310Z,2.71
2022-12-13T03:52:01.942Z,2.63
2022-12-13T03:54:28.412Z,2.68
2022-12-13T03:56:54.887Z,2.69
2022-12-13T03:59:21.356Z,2.88
2022-12-13T04:01:47.873Z,2.72
2022-12-13T04:04:14.412Z,2.52
2022-12-13T04:06:40.923Z,2.22
2022-12-13T04:09:07.430Z,2.26
2022-12-13T04:11:33.877Z,2.28
2022-12-13T04:14:21.707Z,2.46
2022-12-13T04:17:00.282Z,2.44
2022-12-13T04:19:26.807Z,2.53
2022-12-13T04:21:53.392Z,2.30
2022-12-13T04:24:20.947Z,2.24
2022-12-13T04:26:47.443Z,2.31
2022-12-13T04:29:13.923Z,2.24
2022-12-13T04:31:40.724Z,2.02
2022-12-13T04:34:07.488Z,2.09
2022-12-13T04:36:33.945Z,1.70
2022-12-13T04:39:22.146Z,1.60
2022-12-13T04:41:52.314Z,2.08
2022-12-13T04:44:27.631Z,2.32
2022-12-13T04:46:55.662Z,2.22
2022-12-13T04:49:27.707Z,2.39
2022-12-13T04:52:00.412Z,2.43
2022-12-13T04:54:27.914Z,2.54
2022-12-13T04:57:04.912Z,2.07
2022-12-13T04:59:31.431Z,2.21
2022-12-13T05:01:57.925Z,1.80
2022-12-13T05:04:28.961Z,1.70
2022-12-13T05:06:58.717Z,2.04
2022-12-13T05:09:25.213Z,2.07
2022-12-13T05:11:51.681Z,2.08
2022-12-13T05:14:27.919Z,2.11
2022-12-13T05:16:54.459Z,2.22
2022-12-13T05:19:20.996Z,2.51
2022-12-13T05:21:48.696Z,2.52
2022-12-13T05:24:15.408Z,2.39
2022-12-13T05:26:41.870Z,1.84
2022-12-13T05:29:09.489Z,2.03
2022-12-13T05:31:36.044Z,2.16
2022-12-13T05:34:02.629Z,2.38
2022-12-13T05:36:29.166Z,2.52
2022-12-13T05:38:55.776Z,2.66
2022-12-13T05:41:24.298Z,2.41
2022-12-13T05:43:51.744Z,2.17
2022-12-13T05:46:18.386Z,2.32
2022-12-13T05:48:44.879Z,2.08
2022-12-13T05:51:12.085Z,2.29
2022-12-13T05:53:40.468Z,1.80
2022-12-13T05:56:07.691Z,1.62
2022-12-13T05:58:36.125Z,1.27
2022-12-13T06:01:08.846Z,1.61
2022-12-13T06:03:36.024Z,1.18
2022-12-13T06:06:03.680Z,1.04
2022-12-13T06:08:30.844Z,1.00
2022-12-13T06:11:11.615Z,0.94
2022-12-13T06:13:44.166Z,0.79
2022-12-13T06:16:21.676Z,0.81
2022-12-13T06:18:50.602Z,0.79
2022-12-13T06:21:17.547Z,0.84
2022-12-13T06:23:44.138Z,1.01
2022-12-13T06:26:10.613Z,0.92
2022-12-13T06:28:37.081Z,1.09
2022-12-13T06:31:04.148Z,1.25
2022-12-13T06:33:31.567Z,0.93
2022-12-13T06:35:58.645Z,1.24
2022-12-13T06:38:31.927Z,1.39
2022-12-13T06:41:13.872Z,1.12
2022-12-13T06:43:44.685Z,1.05
2022-12-13T06:46:12.145Z,1.48
2022-12-13T06:48:38.659Z,1.71
2022-12-13T06:51:05.502Z,2.07
2022-12-13T06:53:32.967Z,2.26
2022-12-13T06:56:04.501Z,2.18
2022-12-13T06:58:31.361Z,2.17
2022-12-13T07:01:06.278Z,2.28
2022-12-13T07:03:42.108Z,2.28
2022-12-13T07:06:16.670Z,2.04
2022-12-13T07:08:47.688Z,1.47
2022-12-13T07:11:15.646Z,1.31
2022-12-13T07:13:42.644Z,1.47
2022-12-13T07:16:09.689Z,1.35
2022-12-13T07:18:36.453Z,1.25
2022-12-13T07:21:07.264Z,0.98
2022-12-13T07:23:34.912Z,0.88
2022-12-13T07:26:01.482Z,0.85
2022-12-13T07:28:28.488Z,1.08
2022-12-13T07:30:55.053Z,0.56
2022-12-13T07:33:22.475Z,1.21
2022-12-13T07:35:55.137Z,1.47
2022-12-13T07:38:22.246Z,1.63
2022-12-13T07:40:48.773Z,1.52
2022-12-13T07:43:15.254Z,1.51
2022-12-13T07:45:41.760Z,1.75
2022-12-13T07:48:08.275Z,1.28
2022-12-13T07:50:36.785Z,1.65
2022-12-13T07:53:07.128Z,1.89
2022-12-13T07:55:34.996Z,1.88
2022-12-13T07:58:13.537Z,1.95
2022-12-13T08:00:46.022Z,1.35
2022-12-13T08:03:24.473Z,1.54
2022-12-13T08:06:08.190Z,1.47
2022-12-13T08:08:34.851Z,1.97
2022-12-13T08:11:10.785Z,1.97
2022-12-13T08:13:38.739Z,1.70
2022-12-13T08:16:27.428Z,1.56
2022-12-13T08:19:01.598Z,1.85
2022-12-13T08:24:20.482Z,1.57
2022-12-13T08:26:47.066Z,1.80
2022-12-13T08:29:13.521Z,2.13
2022-12-13T08:31:50.127Z,2.25
2022-12-13T08:34:16.601Z,2.31
2022-12-13T08:36:43.075Z,2.48
2022-12-13T08:39:09.544Z,2.25
2022-12-13T08:41:39.298Z,2.41
2022-12-13T08:44:06.149Z,1.93
2022-12-13T08:46:32.802Z,2.14
2022-12-13T08:48:59.359Z,2.09
2022-12-13T08:51:30.878Z,2.56
2022-12-13T08:54:11.321Z,2.81
2022-12-13T08:56:38.123Z,2.94
2022-12-13T08:59:04.773Z,3.16
2022-12-13T09:01:31.272Z,3.23
2022-12-13T09:03:57.789Z,3.44
2022-12-13T09:06:24.469Z,3.54
2022-12-13T09:08:53.726Z,3.69
2022-12-13T09:11:33.240Z,3.79
2022-12-13T09:14:03.149Z,3.52
2022-12-13T09:16:29.725Z,3.50
2022-12-13T09:19:06.575Z,3.64
2022-12-13T09:21:51.484Z,3.76
2022-12-13T09:24:23.971Z,3.98
2022-12-13T09:26:57.370Z,3.94
2022-12-13T09:29:24.615Z,4.13
2022-12-13T09:31:53.516Z,4.33
2022-12-13T09:34:20.291Z,4.33
2022-12-13T09:36:46.883Z,4.40
2022-12-13T09:39:13.317Z,4.40
2022-12-13T09:42:01.210Z,4.28
2022-12-13T09:44:46.557Z,4.42
2022-12-13T09:47:35.160Z,4.45
2022-12-13T09:50:08.034Z,4.58
2022-12-13T09:52:44.373Z,4.60
2022-12-13T09:55:21.676Z,4.53
2022-12-13T09:57:48.769Z,4.56
2022-12-13T10:00:22.096Z,4.68
2022-12-13T10:02:55.581Z,4.62
2022-12-13T10:05:39.535Z,4.62
2022-12-13T10:08:16.980Z,4.79
2022-12-13T10:10:43.841Z,4.72
2022-12-13T10:13:35.241Z,4.71
2022-12-13T10:16:15.418Z,4.78
2022-12-13T10:18:50.760Z,4.68
2022-12-13T10:21:42.284Z,4.74
2022-12-13T10:24:32.927Z,4.69
2022-12-13T10:27:14.540Z,4.82
2022-12-13T10:30:18.155Z,4.73
2022-12-13T10:32:54.785Z,4.77
2022-12-13T10:35:24.176Z,4.72
2022-12-13T10:37:50.966Z,4.45
2022-12-13T10:40:37.490Z,4.38
2022-12-13T10:43:18.783Z,4.33
2022-12-13T10:45:53.822Z,3.92
2022-12-13T10:48:24.539Z,4.07
2022-12-13T10:51:19.367Z,3.85
2022-12-13T10:53:54.413Z,3.99
2022-12-13T10:56:32.343Z,4.06
2022-12-13T10:59:18.423Z,3.99
2022-12-13T11:01:47.826Z,3.98
2022-12-13T11:04:29.504Z,4.04
2022-12-13T11:07:01.379Z,4.06
2022-12-13T11:09:38.691Z,4.08
2022-12-13T11:12:18.608Z,3.95
2022-12-13T11:15:02.652Z,3.93
2022-12-13T11:17:32.851Z,3.89
2022-12-13T11:20:06.707Z,4.03
2022-12-13T11:22:38.293Z,4.02
2022-12-13T11:25:09.258Z,3.98
2022-12-13T11:28:00.683Z,4.13
2022-12-13T11:30:50.312Z,4.26
2022-12-13T11:33:32.276Z,4.04
2022-12-13T11:36:18.945Z,4.17
2022-12-13T11:39:07.415Z,4.27
2022-12-13T11:41:47.679Z,4.31
2022-12-13T11:44:23.169Z,4.36
2022-12-13T11:46:54.932Z,4.30
2022-12-13T11:49:38.001Z,4.42
2022-12-13T11:52:12.200Z,4.37
2022-12-13T11:55:00.423Z,4.51
2022-12-13T11:57:29.772Z,4.33
2022-12-13T12:00:34.171Z,4.38
2022-12-13T12:03:19.121Z,4.41
2022-12-13T12:06:02.108Z,4.32
2022-12-13T12:08:46.023Z,4.45
2022-12-13T12:11:28.781Z,4.53
2022-12-13T12:14:24.201Z,4.40
2022-12-13T12:16:59.207Z,4.54
2022-12-13T12:19:38.863Z,4.48
2022-12-13T12:22:23.964Z,4.42
2022-12-13T12:25:08.917Z,4.61
2022-12-13T12:27:59.496Z,4.67
2022-12-13T12:30:37.654Z,4.72
2022-12-13T12:33:27.865Z,4.79
2022-12-13T12:36:29.675Z,4.60
2022-12-13T12:38:56.076Z,4.78
2022-12-13T12:41:45.668Z,4.80
2022-12-13T12:45:02.301Z,4.90
2022-12-13T12:50:56.440Z,4.89
2022-12-13T12:53:41.640Z,4.71
2022-12-13T12:56:46.268Z,4.80
2022-12-13T12:59:44.396Z,4.79
2022-12-13T13:02:39.147Z,4.60
2022-12-13T13:05:20.337Z,4.66
2022-12-13T13:07:59.264Z,4.66
2022-12-13T13:10:27.341Z,4.47
2022-12-13T13:13:11.687Z,4.09
2022-12-13T13:15:39.219Z,4.44
2022-12-13T13:18:46.069Z,4.49
2022-12-13T13:21:31.201Z,4.53
2022-12-13T13:24:06.702Z,4.50
2022-12-13T13:26:40.309Z,4.57
2022-12-13T13:29:31.097Z,4.44
2022-12-13T13:32:09.834Z,4.55
2022-12-13T13:34:40.760Z,4.66
2022-12-13T13:37:27.914Z,4.66
2022-12-13T13:40:02.453Z,4.67
2022-12-13T13:42:32.414Z,4.64
2022-12-13T13:45:18.923Z,3.98
2022-12-13T13:47:53.316Z,4.24
2022-12-13T13:51:10.992Z,3.46
2022-12-13T13:54:28.144Z,3.55
2022-12-13T13:57:00.527Z,3.12
2022-12-13T14:00:10.766Z,3.06
2022-12-13T14:03:22.214Z,3.35
2022-12-13T14:06:01.161Z,3.41
2022-12-13T14:08:51.556Z,3.31
2022-12-13T14:11:42.718Z,3.69
2022-12-13T14:15:01.096Z,3.79
2022-12-13T14:18:05.044Z,3.90
2022-12-13T14:20:49.964Z,3.99
2022-12-13T14:23:58.448Z,3.95
2022-12-13T14:26:46.024Z,4.14
2022-12-13T14:29:27.281Z,4.29
2022-12-13T14:31:53.942Z,4.27
2022-12-13T14:34:29.802Z,4.43
2022-12-13T14:36:59.565Z,4.60
2022-12-13T14:39:27.153Z,4.62
2022-12-13T14:41:57.533Z,4.74
2022-12-13T14:44:32.811Z,4.84
2022-12-13T14:47:06.859Z,4.85
2022-12-13T14:49:41.906Z,4.82
2022-12-13T14:52:26.212Z,4.96
2022-12-13T14:54:58.204Z,5.02
2022-12-13T14:57:29.854Z,4.99
2022-12-13T14:59:58.499Z,5.04
2022-12-13T15:02:32.067Z,5.05
2022-12-13T15:05:01.902Z,5.16
2022-12-13T15:07:38.377Z,4.92
2022-12-13T15:10:21.385Z,4.95
2022-12-13T15:12:50.380Z,4.93
2022-12-13T15:15:25.321Z,5.04
2022-12-13T15:18:24.761Z,5.16
2022-12-13T15:20:54.050Z,5.09
2022-12-13T15:23:29.735Z,4.97
2022-12-13T15:26:29.029Z,5.00
2022-12-13T15:29:01.097Z,5.02
2022-12-13T15:31:28.221Z,4.87
2022-12-13T15:34:01.196Z,4.84
2022-12-13T15:36:29.443Z,4.73
2022-12-13T15:38:55.899Z,4.67
2022-12-13T15:41:30.077Z,4.77
2022-12-13T15:44:02.120Z,4.94
2022-12-13T15:46:34.957Z,4.74
2022-12-13T15:49:03.140Z,4.55
2022-12-13T15:51:30.929Z,4.65
2022-12-13T15:54:19.507Z,4.56
2022-12-13T15:57:00.200Z,4.37
2022-12-13T15:59:30.549Z,4.08
2022-12-13T16:01:58.694Z,4.11
2022-12-13T16:04:29.949Z,4.07
2022-12-13T16:06:57.408Z,4.09
2022-12-13T16:09:28.871Z,4.12
2022-12-13T16:12:02.037Z,4.19
2022-12-13T16:14:31.408Z,4.26
2022-12-13T16:17:24.156Z,4.22
2022-12-13T16:19:52.730Z,4.16
2022-12-13T16:22:19.781Z,4.07
2022-12-13T16:24:46.302Z,4.16
2022-12-13T16:27:12.762Z,4.15
2022-12-13T16:29:39.360Z,4.14
2022-12-13T16:32:08.545Z,4.23
2022-12-13T16:34:36.018Z,4.37
2022-12-13T16:37:02.911Z,4.47
2022-12-13T16:39:35.139Z,4.53
2022-12-13T16:42:01.656Z,4.60
2022-12-13T16:44:35.544Z,4.52
2022-12-13T16:47:17.900Z,4.68
2022-12-13T16:49:48.633Z,4.66
2022-12-13T16:52:15.174Z,4.80
2022-12-13T16:54:41.648Z,4.89
2022-12-13T16:57:08.868Z,4.85
2022-12-13T16:59:35.350Z,4.80
2022-12-13T17:02:01.894Z,4.89
2022-12-13T17:04:28.399Z,4.96
2022-12-13T17:06:55.617Z,4.94
2022-12-13T17:09:23.705Z,4.93
2022-12-13T17:11:50.197Z,4.80
2022-12-13T17:14:16.731Z,4.84
2022-12-13T17:16:43.317Z,4.70
2022-12-13T17:19:11.689Z,4.49
2022-12-13T17:21:38.188Z,4.13
2022-12-13T17:24:04.850Z,4.00
2022-12-13T17:26:31.376Z,3.95
2022-12-13T17:28:57.855Z,3.70
2022-12-13T17:31:25.751Z,3.85
2022-12-13T17:33:56.699Z,4.05
2022-12-13T17:36:23.172Z,4.22
2022-12-13T17:38:49.649Z,4.28
2022-12-13T17:41:16.139Z,4.38
2022-12-13T17:43:44.602Z,4.46
2022-12-13T17:46:14.390Z,4.46
2022-12-13T17:48:42.051Z,4.42
2022-12-13T17:51:10.725Z,4.59
2022-12-13T17:53:39.989Z,4.58
2022-12-13T17:56:08.918Z,4.73
2022-12-13T17:58:35.769Z,4.73
2022-12-13T18:01:23.966Z,4.95
2022-12-13T18:03:56.172Z,5.00
2022-12-13T18:06:24.473Z,5.09
2022-12-13T18:08:50.930Z,5.25
2022-12-13T18:11:35.095Z,5.27
2022-12-13T18:14:04.168Z,5.29
2022-12-13T18:16:37.072Z,5.39
2022-12-13T18:19:06.783Z,5.45
2022-12-13T18:21:33.657Z,5.51
2022-12-13T18:24:00.124Z,5.54
2022-12-13T18:26:26.778Z,5.53
2022-12-13T18:28:53.234Z,5.54
2022-12-13T18:31:22.754Z,5.64
2022-12-13T18:33:51.668Z,5.62
2022-12-13T18:36:20.110Z,5.59
2022-12-13T18:38:46.861Z,5.40
2022-12-13T18:41:17.291Z,5.56
2022-12-13T18:43:45.127Z,5.65
2022-12-13T18:46:13.079Z,5.65
2022-12-13T18:48:39.700Z,5.63
2022-12-13T18:51:07.982Z,5.69
2022-12-13T18:53:35.304Z,5.66
2022-12-13T18:56:04.542Z,5.75
2022-12-13T18:58:34.765Z,5.69
2022-12-13T19:01:01.527Z,5.79
2022-12-13T19:03:28.534Z,5.76
2022-12-13T19:05:59.992Z,5.79
2022-12-13T19:08:27.599Z,5.83
2022-12-13T19:10:56.528Z,5.85
2022-12-13T19:13:25.029Z,5.81
2022-12-13T19:15:55.573Z,5.83
2022-12-13T19:18:22.766Z,5.82
2022-12-13T19:20:51.930Z,5.72
2022-12-13T19:23:19.501Z,5.75
2022-12-13T19:25:48.555Z,5.67
2022-12-13T19:28:15.914Z,5.72
2022-12-13T19:30:45.060Z,5.70
2022-12-13T19:33:12.834Z,5.55
2022-12-13T19:35:41.365Z,5.57
2022-12-13T19:38:07.883Z,5.60
2022-12-13T19:40:34.390Z,5.65
2022-12-13T19:43:00.897Z,5.63
2022-12-13T19:45:27.363Z,5.60
2022-12-13T19:47:53.926Z,5.59
2022-12-13T19:50:20.448Z,5.62
2022-12-13T19:52:46.942Z,5.51
2022-12-13T19:55:13.414Z,5.59
2022-12-13T19:57:39.903Z,5.54
2022-12-13T20:00:07.137Z,5.49
2022-12-13T20:02:33.653Z,5.56
2022-12-13T20:05:00.173Z,5.59
2022-12-13T20:07:26.643Z,5.57
2022-12-13T20:09:53.119Z,5.57
2022-12-13T20:12:19.604Z,5.63
2022-12-13T20:14:46.523Z,5.61
2022-12-13T20:17:13.010Z,5.58
2022-12-13T20:19:39.523Z,5.49
2022-12-13T20:22:06.116Z,5.56
2022-12-13T20:24:32.580Z,5.54
2022-12-13T20:26:59.088Z,5.43
2022-12-13T20:29:25.628Z,5.54
2022-12-13T20:31:52.122Z,5.47
2022-12-13T20:34:19.368Z,5.55
2022-12-13T20:36:45.844Z,5.59
2022-12-13T20:39:13.830Z,5.60
2022-12-13T20:41:40.881Z,5.60
2022-12-13T20:44:10.393Z,5.64
2022-12-13T20:46:36.969Z,5.65
2022-12-13T20:49:05.373Z,5.53
2022-12-13T20:51:33.978Z,5.55
2022-12-13T20:54:00.469Z,5.56
2022-12-13T20:56:30.590Z,5.59
2022-12-13T20:58:57.065Z,5.61
2022-12-13T21:01:24.857Z,5.56
2022-12-13T21:03:56.958Z,5.55
2022-12-13T21:06:23.876Z,5.62
2022-12-13T21:08:50.381Z,5.66
2022-12-13T21:11:24.558Z,5.63
2022-12-13T21:14:03.636Z,5.55
2022-12-13T21:16:39.084Z,5.69
2022-12-13T21:19:07.903Z,5.69
2022-12-13T21:21:34.981Z,5.68
2022-12-13T21:24:02.240Z,5.65
2022-12-13T21:26:34.983Z,5.65
2022-12-13T21:29:05.396Z,5.73
2022-12-13T21:31:32.517Z,5.69
2022-12-13T21:34:01.005Z,5.56
2022-12-13T21:36:31.302Z,5.63
2022-12-13T21:39:00.522Z,5.69
2022-12-13T21:41:28.333Z,5.67
2022-12-13T21:43:55.185Z,5.64
2022-12-13T21:46:41.387Z,5.61
2022-12-13T21:49:14.151Z,5.60
2022-12-13T21:51:46.032Z,5.47
2022-12-13T21:54:14.532Z,5.44
2022-12-13T21:56:41.012Z,5.44
2022-12-13T21:59:15.723Z,5.46
2022-12-13T22:01:47.041Z,5.46
2022-12-13T22:04:15.905Z,5.29
2022-12-13T22:06:42.673Z,5.23
2022-12-13T22:09:09.542Z,5.04
2022-12-13T22:11:36.772Z,4.89
2022-12-13T22:14:04.231Z,4.93
2022-12-13T22:16:31.466Z,4.86
2022-12-13T22:18:58.084Z,4.92
2022-12-13T22:21:24.836Z,4.66
2022-12-13T22:23:55.516Z,4.45
2022-12-13T22:26:23.892Z,4.52
2022-12-13T22:28:51.176Z,4.19
2022-12-13T22:31:18.477Z,3.65
2022-12-13T22:33:45.389Z,3.56
2022-12-13T22:36:11.869Z,3.61
2022-12-13T22:38:38.417Z,3.67
2022-12-13T22:41:05.528Z,3.55
2022-12-13T22:43:35.766Z,3.59
2022-12-13T22:46:03.555Z,3.74
2022-12-13T22:48:31.463Z,3.65
2022-12-13T22:51:06.137Z,3.85
2022-12-13T22:53:32.774Z,4.08
2022-12-13T22:56:09.797Z,4.34
2022-12-13T22:58:37.190Z,4.53
2022-12-13T23:01:24.736Z,4.43
2022-12-13T23:03:51.577Z,4.64
2022-12-13T23:06:21.086Z,4.74
2022-12-13T23:08:53.811Z,4.91
2022-12-13T23:11:21.029Z,4.95
2022-12-13T23:13:52.161Z,4.88
2022-12-13T23:16:19.699Z,4.73
2022-12-13T23:18:47.452Z,4.63
2022-12-13T23:21:14.560Z,4.69
2022-12-13T23:23:41.506Z,4.83
2022-12-13T23:26:19.856Z,4.79
2022-12-13T23:28:49.956Z,4.82
2022-12-13T23:31:17.614Z,4.87
2022-12-13T23:33:44.847Z,4.84
2022-12-13T23:36:20.899Z,4.91
2022-12-13T23:38:47.870Z,4.83
2022-12-13T23:41:23.160Z,4.87
2022-12-13T23:43:51.251Z,4.87
2022-12-13T23:46:21.126Z,4.73
2022-12-13T23:48:48.066Z,4.94
2022-12-13T23:51:17.095Z,4.99
2022-12-13T23:53:44.237Z,5.04
2022-12-13T23:56:13.880Z,5.20
2022-12-13T23:58:42.936Z,5.37
